sensor_id;sensor_type;location;lat;lon;timestamp;P1;durP1;ratioP1;P2;durP2;ratioP2
81912;SDS011;71377;50.698;7.164;2024-03-29T00:01:44;1.83;;;1.25;;
81912;SDS011;71377;50.698;7.164;2024-03-29T00:04:10;1.48;;;1.10;;
81912;SDS011;71377;50.698;7.164;2024-03-29T00:06:35;1.70;;;0.90;;
81912;SDS011;71377;50.698;7.164;2024-03-29T00:09:01;1.95;;;1.13;;
81912;SDS011;71377;50.698;7.164;2024-03-29T00:11:27;4.05;;;1.10;;
81912;SDS011;71377;50.698;7.164;2024-03-29T00:13:52;1.63;;;1.10;;
81912;SDS011;71377;50.698;7.164;2024-03-29T00:16:18;1.95;;;1.05;;
81912;SDS011;71377;50.698;7.164;2024-03-29T00:18:44;3.45;;;1.30;;
81912;SDS011;71377;50.698;7.164;2024-03-29T00:21:09;2.97;;;1.10;;
81912;SDS011;71377;50.698;7.164;2024-03-29T00:23:35;3.90;;;1.23;;
81912;SDS011;71377;50.698;7.164;2024-03-29T00:26:00;2.55;;;1.10;;
81912;SDS011;71377;50.698;7.164;2024-03-29T00:28:26;1.92;;;1.13;;
81912;SDS011;71377;50.698;7.164;2024-03-29T00:30:51;2.15;;;1.20;;
81912;SDS011;71377;50.698;7.164;2024-03-29T00:33:17;3.95;;;1.27;;
81912;SDS011;71377;50.698;7.164;2024-03-29T00:35:42;5.38;;;1.58;;
81912;SDS011;71377;50.698;7.164;2024-03-29T00:38:07;5.80;;;1.35;;
81912;SDS011;71377;50.698;7.164;2024-03-29T00:40:35;2.25;;;1.30;;
81912;SDS011;71377;50.698;7.164;2024-03-29T00:43:01;3.83;;;1.15;;
81912;SDS011;71377;50.698;7.164;2024-03-29T00:45:26;4.07;;;1.17;;
81912;SDS011;71377;50.698;7.164;2024-03-29T00:47:53;4.50;;;1.10;;
81912;SDS011;71377;50.698;7.164;2024-03-29T00:50:19;1.42;;;0.88;;
81912;SDS011;71377;50.698;7.164;2024-03-29T00:52:45;1.98;;;0.90;;
81912;SDS011;71377;50.698;7.164;2024-03-29T00:55:13;4.85;;;1.30;;
81912;SDS011;71377;50.698;7.164;2024-03-29T00:57:38;1.92;;;1.00;;
81912;SDS011;71377;50.698;7.164;2024-03-29T01:00:04;3.03;;;1.35;;
81912;SDS011;71377;50.698;7.164;2024-03-29T01:02:30;4.30;;;1.10;;
81912;SDS011;71377;50.698;7.164;2024-03-29T01:04:56;1.77;;;1.08;;
81912;SDS011;71377;50.698;7.164;2024-03-29T01:07:22;3.38;;;0.90;;
81912;SDS011;71377;50.698;7.164;2024-03-29T01:09:47;0.95;;;0.90;;
81912;SDS011;71377;50.698;7.164;2024-03-29T01:12:13;3.38;;;1.05;;
81912;SDS011;71377;50.698;7.164;2024-03-29T01:14:38;3.22;;;1.10;;
81912;SDS011;71377;50.698;7.164;2024-03-29T01:17:04;1.00;;;0.90;;
81912;SDS011;71377;50.698;7.164;2024-03-29T01:19:29;3.63;;;0.98;;
81912;SDS011;71377;50.698;7.164;2024-03-29T01:21:54;2.80;;;1.10;;
81912;SDS011;71377;50.698;7.164;2024-03-29T01:24:20;2.22;;;1.08;;
81912;SDS011;71377;50.698;7.164;2024-03-29T01:26:45;2.67;;;0.90;;
81912;SDS011;71377;50.698;7.164;2024-03-29T01:29:11;3.38;;;0.90;;
81912;SDS011;71377;50.698;7.164;2024-03-29T01:31:36;3.75;;;1.05;;
81912;SDS011;71377;50.698;7.164;2024-03-29T01:34:02;2.08;;;0.95;;
81912;SDS011;71377;50.698;7.164;2024-03-29T01:36:28;4.40;;;1.25;;
81912;SDS011;71377;50.698;7.164;2024-03-29T01:38:54;4.25;;;1.10;;
81912;SDS011;71377;50.698;7.164;2024-03-29T01:41:22;3.88;;;0.80;;
81912;SDS011;71377;50.698;7.164;2024-03-29T01:43:49;3.45;;;1.35;;
81912;SDS011;71377;50.698;7.164;2024-03-29T01:46:19;2.10;;;1.15;;
81912;SDS011;71377;50.698;7.164;2024-03-29T01:48:46;1.25;;;0.80;;
81912;SDS011;71377;50.698;7.164;2024-03-29T01:51:12;3.05;;;1.35;;
81912;SDS011;71377;50.698;7.164;2024-03-29T01:53:39;1.77;;;0.90;;
81912;SDS011;71377;50.698;7.164;2024-03-29T01:56:05;1.60;;;0.90;;
81912;SDS011;71377;50.698;7.164;2024-03-29T01:58:31;2.10;;;0.93;;
81912;SDS011;71377;50.698;7.164;2024-03-29T02:00:58;2.00;;;0.80;;
81912;SDS011;71377;50.698;7.164;2024-03-29T02:03:25;2.72;;;1.20;;
81912;SDS011;71377;50.698;7.164;2024-03-29T02:05:50;3.50;;;1.15;;
81912;SDS011;71377;50.698;7.164;2024-03-29T02:08:17;4.32;;;1.08;;
81912;SDS011;71377;50.698;7.164;2024-03-29T02:10:43;3.85;;;1.10;;
81912;SDS011;71377;50.698;7.164;2024-03-29T02:13:12;0.82;;;0.82;;
81912;SDS011;71377;50.698;7.164;2024-03-29T02:15:38;4.30;;;0.90;;
81912;SDS011;71377;50.698;7.164;2024-03-29T02:18:04;1.63;;;0.95;;
81912;SDS011;71377;50.698;7.164;2024-03-29T02:20:31;1.83;;;1.10;;
81912;SDS011;71377;50.698;7.164;2024-03-29T02:22:58;7.63;;;1.17;;
81912;SDS011;71377;50.698;7.164;2024-03-29T02:25:27;1.88;;;1.00;;
81912;SDS011;71377;50.698;7.164;2024-03-29T02:27:53;2.55;;;1.20;;
81912;SDS011;71377;50.698;7.164;2024-03-29T02:30:19;3.20;;;1.02;;
81912;SDS011;71377;50.698;7.164;2024-03-29T02:32:46;3.55;;;1.00;;
81912;SDS011;71377;50.698;7.164;2024-03-29T02:35:12;3.67;;;1.10;;
81912;SDS011;71377;50.698;7.164;2024-03-29T02:37:37;3.47;;;1.40;;
81912;SDS011;71377;50.698;7.164;2024-03-29T02:40:04;2.53;;;1.10;;
81912;SDS011;71377;50.698;7.164;2024-03-29T02:42:31;2.85;;;1.02;;
81912;SDS011;71377;50.698;7.164;2024-03-29T02:44:57;4.68;;;1.27;;
81912;SDS011;71377;50.698;7.164;2024-03-29T02:47:23;3.05;;;1.27;;
81912;SDS011;71377;50.698;7.164;2024-03-29T02:49:48;2.15;;;1.10;;
81912;SDS011;71377;50.698;7.164;2024-03-29T02:52:14;1.33;;;0.90;;
81912;SDS011;71377;50.698;7.164;2024-03-29T02:54:40;2.58;;;1.10;;
81912;SDS011;71377;50.698;7.164;2024-03-29T02:57:06;1.98;;;1.20;;
81912;SDS011;71377;50.698;7.164;2024-03-29T02:59:32;1.80;;;1.00;;
81912;SDS011;71377;50.698;7.164;2024-03-29T03:01:57;2.35;;;1.00;;
81912;SDS011;71377;50.698;7.164;2024-03-29T03:04:23;3.53;;;1.08;;
81912;SDS011;71377;50.698;7.164;2024-03-29T03:06:48;1.88;;;1.10;;
81912;SDS011;71377;50.698;7.164;2024-03-29T03:09:14;2.33;;;1.10;;
81912;SDS011;71377;50.698;7.164;2024-03-29T03:11:58;3.35;;;1.00;;
81912;SDS011;71377;50.698;7.164;2024-03-29T03:14:24;3.17;;;1.10;;
81912;SDS011;71377;50.698;7.164;2024-03-29T03:16:49;2.33;;;1.00;;
81912;SDS011;71377;50.698;7.164;2024-03-29T03:19:15;3.47;;;1.10;;
81912;SDS011;71377;50.698;7.164;2024-03-29T03:21:40;1.70;;;1.02;;
81912;SDS011;71377;50.698;7.164;2024-03-29T03:24:06;1.77;;;0.95;;
81912;SDS011;71377;50.698;7.164;2024-03-29T03:26:32;2.55;;;1.10;;
81912;SDS011;71377;50.698;7.164;2024-03-29T03:28:57;1.42;;;0.93;;
81912;SDS011;71377;50.698;7.164;2024-03-29T03:31:22;1.55;;;1.02;;
81912;SDS011;71377;50.698;7.164;2024-03-29T03:33:50;1.58;;;0.98;;
81912;SDS011;71377;50.698;7.164;2024-03-29T03:36:16;2.03;;;1.08;;
81912;SDS011;71377;50.698;7.164;2024-03-29T03:38:41;4.28;;;1.17;;
81912;SDS011;71377;50.698;7.164;2024-03-29T03:41:07;2.85;;;1.45;;
81912;SDS011;71377;50.698;7.164;2024-03-29T03:43:32;2.67;;;1.10;;
81912;SDS011;71377;50.698;7.164;2024-03-29T03:46:01;5.63;;;1.67;;
81912;SDS011;71377;50.698;7.164;2024-03-29T03:48:27;3.72;;;1.50;;
81912;SDS011;71377;50.698;7.164;2024-03-29T03:50:56;4.30;;;1.33;;
81912;SDS011;71377;50.698;7.164;2024-03-29T03:53:22;1.33;;;1.05;;
81912;SDS011;71377;50.698;7.164;2024-03-29T03:55:48;2.28;;;1.42;;
81912;SDS011;71377;50.698;7.164;2024-03-29T03:58:13;1.63;;;1.02;;
81912;SDS011;71377;50.698;7.164;2024-03-29T04:00:39;2.25;;;1.10;;
81912;SDS011;71377;50.698;7.164;2024-03-29T04:03:05;2.47;;;1.00;;
81912;SDS011;71377;50.698;7.164;2024-03-29T04:05:30;5.03;;;1.30;;
81912;SDS011;71377;50.698;7.164;2024-03-29T04:07:57;2.78;;;1.02;;
81912;SDS011;71377;50.698;7.164;2024-03-29T04:10:23;3.13;;;1.17;;
81912;SDS011;71377;50.698;7.164;2024-03-29T04:12:50;3.47;;;1.00;;
81912;SDS011;71377;50.698;7.164;2024-03-29T04:15:16;0.98;;;0.80;;
81912;SDS011;71377;50.698;7.164;2024-03-29T04:17:41;1.52;;;1.15;;
81912;SDS011;71377;50.698;7.164;2024-03-29T04:20:07;1.63;;;0.98;;
81912;SDS011;71377;50.698;7.164;2024-03-29T04:22:33;2.20;;;1.02;;
81912;SDS011;71377;50.698;7.164;2024-03-29T04:24:59;2.35;;;1.10;;
81912;SDS011;71377;50.698;7.164;2024-03-29T04:27:25;2.53;;;1.10;;
81912;SDS011;71377;50.698;7.164;2024-03-29T04:29:52;1.63;;;1.05;;
81912;SDS011;71377;50.698;7.164;2024-03-29T04:32:20;1.58;;;1.10;;
81912;SDS011;71377;50.698;7.164;2024-03-29T04:34:49;2.92;;;1.10;;
81912;SDS011;71377;50.698;7.164;2024-03-29T04:37:15;4.03;;;1.13;;
81912;SDS011;71377;50.698;7.164;2024-03-29T04:39:42;2.60;;;1.10;;
81912;SDS011;71377;50.698;7.164;2024-03-29T04:42:08;1.48;;;1.30;;
81912;SDS011;71377;50.698;7.164;2024-03-29T04:44:33;3.88;;;1.40;;
81912;SDS011;71377;50.698;7.164;2024-03-29T04:46:59;1.23;;;1.00;;
81912;SDS011;71377;50.698;7.164;2024-03-29T04:49:24;2.42;;;1.10;;
81912;SDS011;71377;50.698;7.164;2024-03-29T04:51:57;1.67;;;1.17;;
81912;SDS011;71377;50.698;7.164;2024-03-29T04:54:23;1.95;;;1.20;;
81912;SDS011;71377;50.698;7.164;2024-03-29T04:56:48;2.55;;;1.00;;
81912;SDS011;71377;50.698;7.164;2024-03-29T04:59:13;1.65;;;1.08;;
81912;SDS011;71377;50.698;7.164;2024-03-29T05:01:42;2.65;;;1.33;;
81912;SDS011;71377;50.698;7.164;2024-03-29T05:04:15;2.72;;;1.25;;
81912;SDS011;71377;50.698;7.164;2024-03-29T05:06:51;2.90;;;1.45;;
81912;SDS011;71377;50.698;7.164;2024-03-29T05:09:19;3.97;;;1.65;;
81912;SDS011;71377;50.698;7.164;2024-03-29T05:11:45;2.70;;;1.30;;
81912;SDS011;71377;50.698;7.164;2024-03-29T05:14:13;1.33;;;1.10;;
81912;SDS011;71377;50.698;7.164;2024-03-29T05:16:40;2.75;;;1.52;;
81912;SDS011;71377;50.698;7.164;2024-03-29T05:19:06;2.05;;;1.02;;
81912;SDS011;71377;50.698;7.164;2024-03-29T05:21:31;1.92;;;1.30;;
81912;SDS011;71377;50.698;7.164;2024-03-29T05:23:57;2.10;;;1.13;;
81912;SDS011;71377;50.698;7.164;2024-03-29T05:26:22;2.30;;;1.10;;
81912;SDS011;71377;50.698;7.164;2024-03-29T05:28:48;4.22;;;1.20;;
81912;SDS011;71377;50.698;7.164;2024-03-29T05:31:14;2.30;;;1.10;;
81912;SDS011;71377;50.698;7.164;2024-03-29T05:33:40;2.83;;;1.17;;
81912;SDS011;71377;50.698;7.164;2024-03-29T05:36:06;2.58;;;1.27;;
81912;SDS011;71377;50.698;7.164;2024-03-29T05:38:33;3.78;;;1.30;;
81912;SDS011;71377;50.698;7.164;2024-03-29T05:40:59;2.63;;;1.40;;
81912;SDS011;71377;50.698;7.164;2024-03-29T05:43:25;1.83;;;1.00;;
81912;SDS011;71377;50.698;7.164;2024-03-29T05:45:52;4.97;;;1.20;;
81912;SDS011;71377;50.698;7.164;2024-03-29T05:48:18;3.50;;;1.40;;
81912;SDS011;71377;50.698;7.164;2024-03-29T05:50:44;2.38;;;1.10;;
81912;SDS011;71377;50.698;7.164;2024-03-29T05:53:10;2.05;;;1.20;;
81912;SDS011;71377;50.698;7.164;2024-03-29T05:55:36;3.78;;;1.48;;
81912;SDS011;71377;50.698;7.164;2024-03-29T05:58:02;2.42;;;1.40;;
81912;SDS011;71377;50.698;7.164;2024-03-29T06:00:28;2.95;;;1.10;;
81912;SDS011;71377;50.698;7.164;2024-03-29T06:02:54;3.33;;;1.20;;
81912;SDS011;71377;50.698;7.164;2024-03-29T06:05:20;2.85;;;1.23;;
81912;SDS011;71377;50.698;7.164;2024-03-29T06:07:45;2.63;;;1.10;;
81912;SDS011;71377;50.698;7.164;2024-03-29T06:10:11;3.17;;;1.23;;
81912;SDS011;71377;50.698;7.164;2024-03-29T06:12:36;2.55;;;1.10;;
81912;SDS011;71377;50.698;7.164;2024-03-29T06:15:04;1.45;;;1.08;;
81912;SDS011;71377;50.698;7.164;2024-03-29T06:17:49;5.70;;;1.65;;
81912;SDS011;71377;50.698;7.164;2024-03-29T06:20:14;1.27;;;1.05;;
81912;SDS011;71377;50.698;7.164;2024-03-29T06:22:40;2.10;;;1.33;;
81912;SDS011;71377;50.698;7.164;2024-03-29T06:25:06;2.70;;;1.30;;
81912;SDS011;71377;50.698;7.164;2024-03-29T06:27:32;3.25;;;1.30;;
81912;SDS011;71377;50.698;7.164;2024-03-29T06:29:58;2.25;;;1.55;;
81912;SDS011;71377;50.698;7.164;2024-03-29T06:32:24;2.45;;;1.40;;
81912;SDS011;71377;50.698;7.164;2024-03-29T06:34:50;1.33;;;1.13;;
81912;SDS011;71377;50.698;7.164;2024-03-29T06:37:15;2.10;;;1.30;;
81912;SDS011;71377;50.698;7.164;2024-03-29T06:39:41;2.40;;;1.30;;
81912;SDS011;71377;50.698;7.164;2024-03-29T06:42:09;1.65;;;0.90;;
81912;SDS011;71377;50.698;7.164;2024-03-29T06:44:35;1.45;;;1.13;;
81912;SDS011;71377;50.698;7.164;2024-03-29T06:47:02;1.15;;;1.05;;
81912;SDS011;71377;50.698;7.164;2024-03-29T06:49:28;1.30;;;1.00;;
81912;SDS011;71377;50.698;7.164;2024-03-29T06:51:53;1.50;;;1.10;;
81912;SDS011;71377;50.698;7.164;2024-03-29T06:54:21;2.85;;;1.17;;
81912;SDS011;71377;50.698;7.164;2024-03-29T06:56:51;1.75;;;1.20;;
81912;SDS011;71377;50.698;7.164;2024-03-29T06:59:18;2.38;;;1.10;;
81912;SDS011;71377;50.698;7.164;2024-03-29T07:01:43;1.48;;;1.05;;
81912;SDS011;71377;50.698;7.164;2024-03-29T07:04:09;2.08;;;1.20;;
81912;SDS011;71377;50.698;7.164;2024-03-29T07:06:34;4.15;;;1.50;;
81912;SDS011;71377;50.698;7.164;2024-03-29T07:09:02;2.00;;;1.23;;
81912;SDS011;71377;50.698;7.164;2024-03-29T07:11:29;2.75;;;1.25;;
81912;SDS011;71377;50.698;7.164;2024-03-29T07:13:54;1.73;;;1.13;;
81912;SDS011;71377;50.698;7.164;2024-03-29T07:16:19;3.45;;;1.38;;
81912;SDS011;71377;50.698;7.164;2024-03-29T07:18:45;1.35;;;1.15;;
81912;SDS011;71377;50.698;7.164;2024-03-29T07:21:11;2.15;;;1.20;;
81912;SDS011;71377;50.698;7.164;2024-03-29T07:23:36;1.25;;;1.10;;
81912;SDS011;71377;50.698;7.164;2024-03-29T07:26:03;0.98;;;0.90;;
81912;SDS011;71377;50.698;7.164;2024-03-29T07:28:29;3.13;;;1.20;;
81912;SDS011;71377;50.698;7.164;2024-03-29T07:30:56;1.33;;;1.02;;
81912;SDS011;71377;50.698;7.164;2024-03-29T07:33:22;1.92;;;1.17;;
81912;SDS011;71377;50.698;7.164;2024-03-29T07:35:55;1.95;;;1.10;;
81912;SDS011;71377;50.698;7.164;2024-03-29T07:38:21;3.40;;;1.30;;
81912;SDS011;71377;50.698;7.164;2024-03-29T07:40:48;2.05;;;0.90;;
81912;SDS011;71377;50.698;7.164;2024-03-29T07:43:14;2.00;;;1.17;;
81912;SDS011;71377;50.698;7.164;2024-03-29T07:45:40;1.98;;;1.05;;
81912;SDS011;71377;50.698;7.164;2024-03-29T07:48:11;2.10;;;0.88;;
81912;SDS011;71377;50.698;7.164;2024-03-29T07:50:38;1.05;;;0.90;;
81912;SDS011;71377;50.698;7.164;2024-03-29T07:53:04;2.60;;;0.82;;
81912;SDS011;71377;50.698;7.164;2024-03-29T07:55:30;2.65;;;1.05;;
81912;SDS011;71377;50.698;7.164;2024-03-29T07:57:55;2.30;;;1.05;;
81912;SDS011;71377;50.698;7.164;2024-03-29T08:00:21;1.20;;;0.82;;
81912;SDS011;71377;50.698;7.164;2024-03-29T08:02:47;1.48;;;1.15;;
81912;SDS011;71377;50.698;7.164;2024-03-29T08:05:13;2.83;;;1.08;;
81912;SDS011;71377;50.698;7.164;2024-03-29T08:07:39;1.55;;;0.90;;
81912;SDS011;71377;50.698;7.164;2024-03-29T08:10:04;2.58;;;1.02;;
81912;SDS011;71377;50.698;7.164;2024-03-29T08:12:31;1.65;;;1.00;;
81912;SDS011;71377;50.698;7.164;2024-03-29T08:14:58;1.15;;;0.88;;
81912;SDS011;71377;50.698;7.164;2024-03-29T08:17:24;2.45;;;0.90;;
81912;SDS011;71377;50.698;7.164;2024-03-29T08:19:50;1.10;;;0.90;;
81912;SDS011;71377;50.698;7.164;2024-03-29T08:22:15;2.13;;;0.77;;
81912;SDS011;71377;50.698;7.164;2024-03-29T08:24:41;0.95;;;0.70;;
81912;SDS011;71377;50.698;7.164;2024-03-29T08:27:07;1.65;;;1.02;;
81912;SDS011;71377;50.698;7.164;2024-03-29T08:29:32;2.10;;;0.90;;
81912;SDS011;71377;50.698;7.164;2024-03-29T08:31:58;1.08;;;0.93;;
81912;SDS011;71377;50.698;7.164;2024-03-29T08:34:23;0.82;;;0.70;;
81912;SDS011;71377;50.698;7.164;2024-03-29T08:36:49;1.65;;;0.90;;
81912;SDS011;71377;50.698;7.164;2024-03-29T08:39:15;1.33;;;0.60;;
81912;SDS011;71377;50.698;7.164;2024-03-29T08:41:41;1.45;;;0.88;;
81912;SDS011;71377;50.698;7.164;2024-03-29T08:44:09;2.10;;;0.85;;
81912;SDS011;71377;50.698;7.164;2024-03-29T08:46:35;1.48;;;0.80;;
81912;SDS011;71377;50.698;7.164;2024-03-29T08:49:00;0.80;;;0.80;;
81912;SDS011;71377;50.698;7.164;2024-03-29T08:51:26;0.68;;;0.60;;
81912;SDS011;71377;50.698;7.164;2024-03-29T08:53:51;0.65;;;0.63;;
81912;SDS011;71377;50.698;7.164;2024-03-29T08:56:17;0.73;;;0.70;;
81912;SDS011;71377;50.698;7.164;2024-03-29T08:58:42;0.73;;;0.60;;
81912;SDS011;71377;50.698;7.164;2024-03-29T09:01:08;0.50;;;0.50;;
81912;SDS011;71377;50.698;7.164;2024-03-29T09:03:33;1.95;;;0.80;;
81912;SDS011;71377;50.698;7.164;2024-03-29T09:05:59;1.75;;;1.17;;
81912;SDS011;71377;50.698;7.164;2024-03-29T09:08:24;0.80;;;0.63;;
81912;SDS011;71377;50.698;7.164;2024-03-29T09:10:50;2.20;;;0.73;;
81912;SDS011;71377;50.698;7.164;2024-03-29T09:13:15;0.63;;;0.63;;
81912;SDS011;71377;50.698;7.164;2024-03-29T09:15:41;1.25;;;0.80;;
81912;SDS011;71377;50.698;7.164;2024-03-29T09:18:07;0.60;;;0.60;;
81912;SDS011;71377;50.698;7.164;2024-03-29T09:20:44;1.58;;;0.60;;
81912;SDS011;71377;50.698;7.164;2024-03-29T09:23:10;0.77;;;0.70;;
81912;SDS011;71377;50.698;7.164;2024-03-29T09:25:39;2.17;;;0.70;;
81912;SDS011;71377;50.698;7.164;2024-03-29T09:28:05;0.75;;;0.57;;
81912;SDS011;71377;50.698;7.164;2024-03-29T09:30:32;1.73;;;0.90;;
81912;SDS011;71377;50.698;7.164;2024-03-29T09:32:57;0.90;;;0.80;;
81912;SDS011;71377;50.698;7.164;2024-03-29T09:35:23;0.80;;;0.80;;
81912;SDS011;71377;50.698;7.164;2024-03-29T09:37:48;1.17;;;0.70;;
81912;SDS011;71377;50.698;7.164;2024-03-29T09:40:14;1.30;;;0.85;;
81912;SDS011;71377;50.698;7.164;2024-03-29T09:42:39;0.50;;;0.50;;
81912;SDS011;71377;50.698;7.164;2024-03-29T09:45:06;0.70;;;0.70;;
81912;SDS011;71377;50.698;7.164;2024-03-29T09:47:32;1.58;;;1.02;;
81912;SDS011;71377;50.698;7.164;2024-03-29T09:50:02;1.75;;;0.93;;
81912;SDS011;71377;50.698;7.164;2024-03-29T09:52:30;1.45;;;0.80;;
81912;SDS011;71377;50.698;7.164;2024-03-29T09:54:57;0.77;;;0.75;;
81912;SDS011;71377;50.698;7.164;2024-03-29T09:57:23;1.38;;;0.93;;
81912;SDS011;71377;50.698;7.164;2024-03-29T09:59:49;1.40;;;0.80;;
81912;SDS011;71377;50.698;7.164;2024-03-29T10:02:15;1.48;;;0.95;;
81912;SDS011;71377;50.698;7.164;2024-03-29T10:04:45;1.50;;;0.80;;
81912;SDS011;71377;50.698;7.164;2024-03-29T10:07:13;2.45;;;0.80;;
81912;SDS011;71377;50.698;7.164;2024-03-29T10:09:41;1.13;;;1.00;;
81912;SDS011;71377;50.698;7.164;2024-03-29T10:12:09;0.80;;;0.80;;
81912;SDS011;71377;50.698;7.164;2024-03-29T10:14:47;1.00;;;0.90;;
81912;SDS011;71377;50.698;7.164;2024-03-29T10:17:32;1.08;;;0.80;;
81912;SDS011;71377;50.698;7.164;2024-03-29T10:20:01;1.80;;;0.90;;
81912;SDS011;71377;50.698;7.164;2024-03-29T10:22:29;1.50;;;1.08;;
81912;SDS011;71377;50.698;7.164;2024-03-29T10:24:56;0.80;;;0.80;;
81912;SDS011;71377;50.698;7.164;2024-03-29T10:27:26;1.25;;;0.80;;
81912;SDS011;71377;50.698;7.164;2024-03-29T10:29:52;0.77;;;0.77;;
81912;SDS011;71377;50.698;7.164;2024-03-29T10:32:18;1.00;;;0.90;;
81912;SDS011;71377;50.698;7.164;2024-03-29T10:34:44;1.67;;;0.90;;
81912;SDS011;71377;50.698;7.164;2024-03-29T10:37:10;0.70;;;0.70;;
81912;SDS011;71377;50.698;7.164;2024-03-29T10:39:36;1.20;;;0.82;;
81912;SDS011;71377;50.698;7.164;2024-03-29T10:42:01;1.92;;;1.00;;
81912;SDS011;71377;50.698;7.164;2024-03-29T10:44:29;0.93;;;0.60;;
81912;SDS011;71377;50.698;7.164;2024-03-29T10:46:58;1.27;;;0.70;;
81912;SDS011;71377;50.698;7.164;2024-03-29T10:49:24;2.38;;;0.80;;
81912;SDS011;71377;50.698;7.164;2024-03-29T10:51:51;1.27;;;1.00;;
81912;SDS011;71377;50.698;7.164;2024-03-29T10:54:18;1.77;;;0.90;;
81912;SDS011;71377;50.698;7.164;2024-03-29T10:56:46;0.93;;;0.90;;
81912;SDS011;71377;50.698;7.164;2024-03-29T10:59:18;1.75;;;0.73;;
81912;SDS011;71377;50.698;7.164;2024-03-29T11:01:49;1.10;;;0.70;;
81912;SDS011;71377;50.698;7.164;2024-03-29T11:04:25;0.88;;;0.75;;
81912;SDS011;71377;50.698;7.164;2024-03-29T11:06:56;2.05;;;1.00;;
81912;SDS011;71377;50.698;7.164;2024-03-29T11:09:24;1.58;;;1.02;;
81912;SDS011;71377;50.698;7.164;2024-03-29T11:11:54;1.55;;;0.95;;
81912;SDS011;71377;50.698;7.164;2024-03-29T11:14:30;0.98;;;0.77;;
81912;SDS011;71377;50.698;7.164;2024-03-29T11:17:01;1.10;;;0.90;;
81912;SDS011;71377;50.698;7.164;2024-03-29T11:19:26;0.90;;;0.90;;
81912;SDS011;71377;50.698;7.164;2024-03-29T11:21:52;0.82;;;0.80;;
81912;SDS011;71377;50.698;7.164;2024-03-29T11:24:18;1.23;;;0.70;;
81912;SDS011;71377;50.698;7.164;2024-03-29T11:26:47;1.10;;;1.00;;
81912;SDS011;71377;50.698;7.164;2024-03-29T11:29:20;1.35;;;1.10;;
81912;SDS011;71377;50.698;7.164;2024-03-29T11:31:46;1.10;;;1.00;;
81912;SDS011;71377;50.698;7.164;2024-03-29T11:34:14;1.52;;;1.00;;
81912;SDS011;71377;50.698;7.164;2024-03-29T11:36:44;0.98;;;0.90;;
81912;SDS011;71377;50.698;7.164;2024-03-29T11:39:19;0.80;;;0.80;;
81912;SDS011;71377;50.698;7.164;2024-03-29T11:41:48;1.27;;;0.80;;
81912;SDS011;71377;50.698;7.164;2024-03-29T11:44:14;1.13;;;0.80;;
81912;SDS011;71377;50.698;7.164;2024-03-29T11:46:40;1.95;;;0.73;;
81912;SDS011;71377;50.698;7.164;2024-03-29T11:49:06;0.82;;;0.80;;
81912;SDS011;71377;50.698;7.164;2024-03-29T11:51:32;1.38;;;1.00;;
81912;SDS011;71377;50.698;7.164;2024-03-29T11:53:59;1.02;;;0.82;;
81912;SDS011;71377;50.698;7.164;2024-03-29T11:56:25;1.73;;;1.05;;
81912;SDS011;71377;50.698;7.164;2024-03-29T11:58:50;0.90;;;0.90;;
81912;SDS011;71377;50.698;7.164;2024-03-29T12:01:16;1.50;;;1.20;;
81912;SDS011;71377;50.698;7.164;2024-03-29T12:03:42;1.83;;;1.25;;
81912;SDS011;71377;50.698;7.164;2024-03-29T12:06:09;1.15;;;1.05;;
81912;SDS011;71377;50.698;7.164;2024-03-29T12:08:35;2.22;;;1.30;;
81912;SDS011;71377;50.698;7.164;2024-03-29T12:11:03;2.40;;;1.00;;
81912;SDS011;71377;50.698;7.164;2024-03-29T12:13:29;2.05;;;0.73;;
81912;SDS011;71377;50.698;7.164;2024-03-29T12:15:55;1.08;;;0.82;;
81912;SDS011;71377;50.698;7.164;2024-03-29T12:18:22;0.80;;;0.80;;
81912;SDS011;71377;50.698;7.164;2024-03-29T12:20:48;1.20;;;0.90;;
81912;SDS011;71377;50.698;7.164;2024-03-29T12:23:16;1.35;;;0.90;;
81912;SDS011;71377;50.698;7.164;2024-03-29T12:25:42;0.80;;;0.80;;
81912;SDS011;71377;50.698;7.164;2024-03-29T12:28:12;1.77;;;0.98;;
81912;SDS011;71377;50.698;7.164;2024-03-29T12:30:42;3.83;;;0.90;;
81912;SDS011;71377;50.698;7.164;2024-03-29T12:33:16;0.88;;;0.88;;
81912;SDS011;71377;50.698;7.164;2024-03-29T12:35:46;1.23;;;1.00;;
81912;SDS011;71377;50.698;7.164;2024-03-29T12:38:14;1.02;;;0.80;;
81912;SDS011;71377;50.698;7.164;2024-03-29T12:40:43;0.85;;;0.85;;
81912;SDS011;71377;50.698;7.164;2024-03-29T12:43:13;0.70;;;0.70;;
81912;SDS011;71377;50.698;7.164;2024-03-29T12:45:40;1.35;;;0.82;;
81912;SDS011;71377;50.698;7.164;2024-03-29T12:48:14;0.70;;;0.70;;
81912;SDS011;71377;50.698;7.164;2024-03-29T12:50:41;1.58;;;1.13;;
81912;SDS011;71377;50.698;7.164;2024-03-29T12:53:09;2.63;;;0.73;;
81912;SDS011;71377;50.698;7.164;2024-03-29T12:55:36;0.90;;;0.90;;
81912;SDS011;71377;50.698;7.164;2024-03-29T12:58:04;0.82;;;0.70;;
81912;SDS011;71377;50.698;7.164;2024-03-29T13:00:34;1.48;;;0.80;;
81912;SDS011;71377;50.698;7.164;2024-03-29T13:03:01;0.70;;;0.70;;
81912;SDS011;71377;50.698;7.164;2024-03-29T13:05:27;0.73;;;0.63;;
81912;SDS011;71377;50.698;7.164;2024-03-29T13:07:54;1.02;;;0.80;;
81912;SDS011;71377;50.698;7.164;2024-03-29T13:10:20;0.57;;;0.50;;
81912;SDS011;71377;50.698;7.164;2024-03-29T13:12:46;0.40;;;0.40;;
81912;SDS011;71377;50.698;7.164;2024-03-29T13:15:25;0.40;;;0.40;;
81912;SDS011;71377;50.698;7.164;2024-03-29T13:17:52;0.70;;;0.70;;
81912;SDS011;71377;50.698;7.164;2024-03-29T13:20:19;0.55;;;0.55;;
81912;SDS011;71377;50.698;7.164;2024-03-29T13:22:46;1.23;;;0.60;;
81912;SDS011;71377;50.698;7.164;2024-03-29T13:25:14;0.70;;;0.50;;
81912;SDS011;71377;50.698;7.164;2024-03-29T13:27:41;0.65;;;0.50;;
81912;SDS011;71377;50.698;7.164;2024-03-29T13:30:07;0.85;;;0.65;;
81912;SDS011;71377;50.698;7.164;2024-03-29T13:32:35;0.65;;;0.60;;
81912;SDS011;71377;50.698;7.164;2024-03-29T13:35:01;0.82;;;0.65;;
81912;SDS011;71377;50.698;7.164;2024-03-29T13:37:33;0.50;;;0.50;;
81912;SDS011;71377;50.698;7.164;2024-03-29T13:39:59;1.05;;;0.60;;
81912;SDS011;71377;50.698;7.164;2024-03-29T13:42:24;0.50;;;0.50;;
81912;SDS011;71377;50.698;7.164;2024-03-29T13:44:50;0.60;;;0.60;;
81912;SDS011;71377;50.698;7.164;2024-03-29T13:47:16;1.17;;;0.60;;
81912;SDS011;71377;50.698;7.164;2024-03-29T13:49:43;0.68;;;0.68;;
81912;SDS011;71377;50.698;7.164;2024-03-29T13:52:09;0.50;;;0.50;;
81912;SDS011;71377;50.698;7.164;2024-03-29T13:54:34;0.75;;;0.60;;
81912;SDS011;71377;50.698;7.164;2024-03-29T13:57:02;0.60;;;0.60;;
81912;SDS011;71377;50.698;7.164;2024-03-29T13:59:29;1.15;;;0.50;;
81912;SDS011;71377;50.698;7.164;2024-03-29T14:01:55;0.50;;;0.50;;
81912;SDS011;71377;50.698;7.164;2024-03-29T14:04:21;0.75;;;0.50;;
81912;SDS011;71377;50.698;7.164;2024-03-29T14:06:47;0.50;;;0.50;;
81912;SDS011;71377;50.698;7.164;2024-03-29T14:09:13;0.98;;;0.60;;
81912;SDS011;71377;50.698;7.164;2024-03-29T14:11:39;0.60;;;0.60;;
81912;SDS011;71377;50.698;7.164;2024-03-29T14:14:05;1.13;;;0.63;;
81912;SDS011;71377;50.698;7.164;2024-03-29T14:16:33;0.60;;;0.60;;
81912;SDS011;71377;50.698;7.164;2024-03-29T14:18:58;0.80;;;0.60;;
81912;SDS011;71377;50.698;7.164;2024-03-29T14:21:24;0.57;;;0.57;;
81912;SDS011;71377;50.698;7.164;2024-03-29T14:23:49;1.23;;;0.60;;
81912;SDS011;71377;50.698;7.164;2024-03-29T14:26:15;0.82;;;0.50;;
81912;SDS011;71377;50.698;7.164;2024-03-29T14:28:40;0.32;;;0.32;;
81912;SDS011;71377;50.698;7.164;2024-03-29T14:31:06;0.57;;;0.57;;
81912;SDS011;71377;50.698;7.164;2024-03-29T14:33:31;0.50;;;0.50;;
81912;SDS011;71377;50.698;7.164;2024-03-29T14:35:57;0.60;;;0.60;;
81912;SDS011;71377;50.698;7.164;2024-03-29T14:38:23;1.58;;;0.70;;
81912;SDS011;71377;50.698;7.164;2024-03-29T14:40:48;3.47;;;0.90;;
81912;SDS011;71377;50.698;7.164;2024-03-29T14:43:14;1.30;;;0.40;;
81912;SDS011;71377;50.698;7.164;2024-03-29T14:45:40;0.95;;;0.60;;